sensor_id;sensor_type;location;lat;lon;timestamp;pressure;altitude;pressure_sealevel;temperature;humidity
17855;BME280;9053;53.358;6.382;2022-10-18T00:01:24;102443.16;;;14.97;100.00
17855;BME280;9053;53.358;6.382;2022-10-18T00:03:54;102443.16;;;14.97;100.00
17855;BME280;9053;53.358;6.382;2022-10-18T00:06:26;102436.03;;;14.96;100.00
17855;BME280;9053;53.358;6.382;2022-10-18T00:08:56;102445.66;;;14.94;100.00
17855;BME280;9053;53.358;6.382;2022-10-18T00:11:26;102437.66;;;14.92;100.00
17855;BME280;9053;53.358;6.382;2022-10-18T00:13:56;102445.59;;;14.92;100.00
17855;BME280;9053;53.358;6.382;2022-10-18T00:16:26;102437.56;;;14.91;100.00
17855;BME280;9053;53.358;6.382;2022-10-18T00:18:56;102441.06;;;14.90;100.00
17855;BME280;9053;53.358;6.382;2022-10-18T00:21:28;102442.75;;;14.88;100.00
17855;BME280;9053;53.358;6.382;2022-10-18T00:23:58;102448.81;;;14.85;100.00
17855;BME280;9053;53.358;6.382;2022-10-18T00:26:29;102454.03;;;14.84;100.00
17855;BME280;9053;53.358;6.382;2022-10-18T00:29:03;102447.81;;;14.82;100.00
17855;BME280;9053;53.358;6.382;2022-10-18T00:31:34;102442.34;;;14.79;100.00
17855;BME280;9053;53.358;6.382;2022-10-18T00:34:06;102438.69;;;14.75;100.00
17855;BME280;9053;53.358;6.382;2022-10-18T00:36:38;102444.75;;;14.73;100.00
17855;BME280;9053;53.358;6.382;2022-10-18T00:39:13;102448.09;;;14.68;100.00
17855;BME280;9053;53.358;6.382;2022-10-18T00:41:44;102449.78;;;14.66;100.00
17855;BME280;9053;53.358;6.382;2022-10-18T00:47:15;102459.22;;;14.60;100.00
17855;BME280;9053;53.358;6.382;2022-10-18T00:49:48;102461.66;;;14.55;100.00
17855;BME280;9053;53.358;6.382;2022-10-18T00:52:24;102455.41;;;14.53;100.00
17855;BME280;9053;53.358;6.382;2022-10-18T00:54:56;102452.66;;;14.52;100.00
17855;BME280;9053;53.358;6.382;2022-10-18T00:57:26;102448.28;;;14.52;100.00
17855;BME280;9053;53.358;6.382;2022-10-18T00:59:56;102446.44;;;14.51;100.00
17855;BME280;9053;53.358;6.382;2022-10-18T01:02:27;102448.19;;;14.50;100.00
17855;BME280;9053;53.358;6.382;2022-10-18T01:05:00;102443.75;;;14.49;100.00
17855;BME280;9053;53.358;6.382;2022-10-18T01:07:44;102442.91;;;14.50;100.00
17855;BME280;9053;53.358;6.382;2022-10-18T01:10:26;102443.78;;;14.51;100.00
17855;BME280;9053;53.358;6.382;2022-10-18T01:13:09;102449.09;;;14.51;100.00
17855;BME280;9053;53.358;6.382;2022-10-18T01:15:52;102456.22;;;14.52;100.00
17855;BME280;9053;53.358;6.382;2022-10-18T01:18:29;102448.28;;;14.52;100.00
17855;BME280;9053;53.358;6.382;2022-10-18T01:21:08;102457.22;;;14.54;100.00
17855;BME280;9053;53.358;6.382;2022-10-18T01:23:56;102453.72;;;14.55;100.00
17855;BME280;9053;53.358;6.382;2022-10-18T01:26:45;102452.81;;;14.55;100.00
17855;BME280;9053;53.358;6.382;2022-10-18T01:29:30;102450.19;;;14.55;100.00
17855;BME280;9053;53.358;6.382;2022-10-18T01:32:06;102459.03;;;14.55;100.00
17855;BME280;9053;53.358;6.382;2022-10-18T01:34:39;102460.69;;;14.53;100.00
17855;BME280;9053;53.358;6.382;2022-10-18T01:37:15;102460.53;;;14.50;100.00
17855;BME280;9053;53.358;6.382;2022-10-18T01:39:46;102464.94;;;14.49;100.00
17855;BME280;9053;53.358;6.382;2022-10-18T01:42:18;102457.75;;;14.47;100.00
17855;BME280;9053;53.358;6.382;2022-10-18T01:44:49;102460.41;;;14.47;100.00
17855;BME280;9053;53.358;6.382;2022-10-18T01:47:24;102464.81;;;14.46;100.00
17855;BME280;9053;53.358;6.382;2022-10-18T01:49:57;102455.09;;;14.47;100.00
17855;BME280;9053;53.358;6.382;2022-10-18T01:52:28;102447.94;;;14.44;100.00
17855;BME280;9053;53.358;6.382;2022-10-18T01:54:59;102449.69;;;14.44;100.00
17855;BME280;9053;53.358;6.382;2022-10-18T01:57:35;102436.38;;;14.42;100.00
17855;BME280;9053;53.358;6.382;2022-10-18T02:00:12;102447.84;;;14.43;100.00
17855;BME280;9053;53.358;6.382;2022-10-18T02:02:47;102446.09;;;14.43;100.00
17855;BME280;9053;53.358;6.382;2022-10-18T02:05:24;102435.47;;;14.42;100.00
17855;BME280;9053;53.358;6.382;2022-10-18T02:08:03;102445.16;;;14.41;100.00
17855;BME280;9053;53.358;6.382;2022-10-18T02:10:53;102457.47;;;14.41;100.00
17855;BME280;9053;53.358;6.382;2022-10-18T02:13:27;102465.41;;;14.41;100.00
17855;BME280;9053;53.358;6.382;2022-10-18T02:16:05;102463.63;;;14.40;100.00
17855;BME280;9053;53.358;6.382;2022-10-18T02:18:41;102461.78;;;14.39;100.00
17855;BME280;9053;53.358;6.382;2022-10-18T02:21:15;102456.38;;;14.36;100.00
17855;BME280;9053;53.358;6.382;2022-10-18T02:23:46;102458.03;;;14.34;100.00
17855;BME280;9053;53.358;6.382;2022-10-18T02:26:17;102470.44;;;14.35;100.00
17855;BME280;9053;53.358;6.382;2022-10-18T02:28:47;102465.94;;;14.32;100.00
17855;BME280;9053;53.358;6.382;2022-10-18T02:31:20;102467.69;;;14.32;100.00
17855;BME280;9053;53.358;6.382;2022-10-18T02:34:00;102467.69;;;14.32;100.00
17855;BME280;9053;53.358;6.382;2022-10-18T02:36:33;102464.09;;;14.31;100.00
17855;BME280;9053;53.358;6.382;2022-10-18T02:39:09;102465.84;;;14.31;100.00
17855;BME280;9053;53.358;6.382;2022-10-18T02:41:41;102460.50;;;14.29;100.00
17855;BME280;9053;53.358;6.382;2022-10-18T02:44:11;102458.63;;;14.26;100.00
17855;BME280;9053;53.358;6.382;2022-10-18T02:46:41;102460.41;;;14.27;100.00
17855;BME280;9053;53.358;6.382;2022-10-18T02:49:14;102467.47;;;14.27;100.00
17855;BME280;9053;53.358;6.382;2022-10-18T02:51:44;102465.63;;;14.26;100.00
17855;BME280;9053;53.358;6.382;2022-10-18T02:54:14;102469.13;;;14.25;100.00
17855;BME280;9053;53.358;6.382;2022-10-18T02:56:44;102470.03;;;14.25;100.00
17855;BME280;9053;53.358;6.382;2022-10-18T02:59:14;102465.59;;;14.24;100.00
17855;BME280;9053;53.358;6.382;2022-10-18T03:01:44;102474.28;;;14.22;100.00
17855;BME280;9053;53.358;6.382;2022-10-18T03:04:17;102478.69;;;14.21;100.00
17855;BME280;9053;53.358;6.382;2022-10-18T03:06:47;102470.66;;;14.20;100.00
17855;BME280;9053;53.358;6.382;2022-10-18T03:09:17;102468.88;;;14.19;100.00
17855;BME280;9053;53.358;6.382;2022-10-18T03:11:47;102474.97;;;14.18;100.00
17855;BME280;9053;53.358;6.382;2022-10-18T03:14:17;102473.22;;;14.18;100.00
17855;BME280;9053;53.358;6.382;2022-10-18T03:16:46;102466.13;;;14.17;100.00
17855;BME280;9053;53.358;6.382;2022-10-18T03:19:19;102467.00;;;14.16;100.00
17855;BME280;9053;53.358;6.382;2022-10-18T03:21:49;102469.47;;;14.13;100.00
17855;BME280;9053;53.358;6.382;2022-10-18T03:24:18;102465.94;;;14.13;100.00
17855;BME280;9053;53.358;6.382;2022-10-18T03:26:48;102465.88;;;14.11;100.00
17855;BME280;9053;53.358;6.382;2022-10-18T03:29:18;102475.47;;;14.09;100.00
17855;BME280;9053;53.358;6.382;2022-10-18T03:31:48;102473.59;;;14.06;100.00
17855;BME280;9053;53.358;6.382;2022-10-18T03:34:20;102467.38;;;14.06;100.00
17855;BME280;9053;53.358;6.382;2022-10-18T03:36:50;102468.16;;;14.03;100.00
17855;BME280;9053;53.358;6.382;2022-10-18T03:39:20;102474.28;;;14.02;100.00
17855;BME280;9053;53.358;6.382;2022-10-18T03:41:50;102483.97;;;14.02;100.00
17855;BME280;9053;53.358;6.382;2022-10-18T03:44:20;102491.00;;;14.01;100.00
17855;BME280;9053;53.358;6.382;2022-10-18T03:46:50;102486.63;;;14.02;100.00
17855;BME280;9053;53.358;6.382;2022-10-18T03:49:22;102479.50;;;14.01;100.00
17855;BME280;9053;53.358;6.382;2022-10-18T03:51:52;102469.63;;;13.97;100.00
17855;BME280;9053;53.358;6.382;2022-10-18T03:54:22;102475.72;;;13.96;100.00
17855;BME280;9053;53.358;6.382;2022-10-18T03:56:51;102479.22;;;13.95;100.00
17855;BME280;9053;53.358;6.382;2022-10-18T03:59:21;102477.44;;;13.94;100.00
17855;BME280;9053;53.358;6.382;2022-10-18T04:01:51;102487.94;;;13.92;100.00
17855;BME280;9053;53.358;6.382;2022-10-18T04:04:23;102494.13;;;13.93;100.00
17855;BME280;9053;53.358;6.382;2022-10-18T04:06:53;102489.72;;;13.93;100.00
17855;BME280;9053;53.358;6.382;2022-10-18T04:09:23;102495.94;;;13.94;100.00
17855;BME280;9053;53.358;6.382;2022-10-18T04:11:53;102503.88;;;13.94;100.00
17855;BME280;9053;53.358;6.382;2022-10-18T04:14:23;102502.06;;;13.93;100.00
17855;BME280;9053;53.358;6.382;2022-10-18T04:16:53;102503.72;;;13.91;100.00
17855;BME280;9053;53.358;6.382;2022-10-18T04:19:25;102491.25;;;13.88;100.00
17855;BME280;9053;53.358;6.382;2022-10-18T04:21:55;102494.66;;;13.85;100.00
17855;BME280;9053;53.358;6.382;2022-10-18T04:24:25;102505.19;;;13.84;100.00
17855;BME280;9053;53.358;6.382;2022-10-18T04:26:54;102518.41;;;13.84;100.00
17855;BME280;9053;53.358;6.382;2022-10-18T04:29:24;102517.50;;;13.83;100.00
17855;BME280;9053;53.358;6.382;2022-10-18T04:31:54;102517.50;;;13.83;100.00
17855;BME280;9053;53.358;6.382;2022-10-18T04:34:26;102513.03;;;13.82;100.00
17855;BME280;9053;53.358;6.382;2022-10-18T04:36:56;102515.69;;;13.82;100.00
17855;BME280;9053;53.358;6.382;2022-10-18T04:39:26;102510.25;;;13.79;100.00
17855;BME280;9053;53.358;6.382;2022-10-18T04:41:56;102497.72;;;13.75;100.00
17855;BME280;9053;53.358;6.382;2022-10-18T04:44:25;102510.69;;;13.71;100.00
17855;BME280;9053;53.358;6.382;2022-10-18T04:46:55;102527.50;;;13.71;100.00
17855;BME280;9053;53.358;6.382;2022-10-18T04:49:27;102530.97;;;13.70;100.00
17855;BME280;9053;53.358;6.382;2022-10-18T04:51:57;102527.34;;;13.68;100.00
17855;BME280;9053;53.358;6.382;2022-10-18T04:54:27;102516.63;;;13.65;100.00
17855;BME280;9053;53.358;6.382;2022-10-18T04:56:57;102510.34;;;13.63;100.00
17855;BME280;9053;53.358;6.382;2022-10-18T04:59:26;102499.72;;;13.61;100.00
17855;BME280;9053;53.358;6.382;2022-10-18T05:01:56;102522.53;;;13.59;100.00
17855;BME280;9053;53.358;6.382;2022-10-18T05:04:29;102523.28;;;13.57;100.00
17855;BME280;9053;53.358;6.382;2022-10-18T05:06:59;102523.28;;;13.57;100.00
17855;BME280;9053;53.358;6.382;2022-10-18T05:09:28;102517.91;;;13.55;100.00
17855;BME280;9053;53.358;6.382;2022-10-18T05:11:58;102516.03;;;13.53;100.00
17855;BME280;9053;53.358;6.382;2022-10-18T05:14:28;102500.03;;;13.50;100.00
17855;BME280;9053;53.358;6.382;2022-10-18T05:16:57;102499.03;;;13.48;100.00
17855;BME280;9053;53.358;6.382;2022-10-18T05:19:30;102492.78;;;13.46;100.00
17855;BME280;9053;53.358;6.382;2022-10-18T05:21:59;102496.25;;;13.45;100.00
17855;BME280;9053;53.358;6.382;2022-10-18T05:24:29;102496.19;;;13.43;100.00
17855;BME280;9053;53.358;6.382;2022-10-18T05:26:59;102511.97;;;13.41;100.00
17855;BME280;9053;53.358;6.382;2022-10-18T05:29:29;102512.78;;;13.40;100.00
17855;BME280;9053;53.358;6.382;2022-10-18T05:31:59;102506.59;;;13.40;100.00
17855;BME280;9053;53.358;6.382;2022-10-18T05:34:31;102506.53;;;13.38;100.00
17855;BME280;9053;53.358;6.382;2022-10-18T05:37:01;102502.00;;;13.36;100.00
17855;BME280;9053;53.358;6.382;2022-10-18T05:39:31;102523.97;;;13.35;100.00
17855;BME280;9053;53.358;6.382;2022-10-18T05:42:01;102517.63;;;13.31;100.00
17855;BME280;9053;53.358;6.382;2022-10-18T05:44:30;102498.06;;;13.28;100.00
17855;BME280;9053;53.358;6.382;2022-10-18T05:47:00;102496.84;;;13.21;100.00
17855;BME280;9053;53.358;6.382;2022-10-18T05:49:33;102516.00;;;13.17;100.00
17855;BME280;9053;53.358;6.382;2022-10-18T05:52:03;102516.75;;;13.14;100.00
17855;BME280;9053;53.358;6.382;2022-10-18T05:54:33;102507.84;;;13.12;100.00
17855;BME280;9053;53.358;6.382;2022-10-18T05:57:02;102502.41;;;13.09;100.00
17855;BME280;9053;53.358;6.382;2022-10-18T05:59:32;102496.09;;;13.06;100.00
17855;BME280;9053;53.358;6.382;2022-10-18T06:02:02;102503.91;;;13.04;100.00
17855;BME280;9053;53.358;6.382;2022-10-18T06:04:35;102508.16;;;13.01;100.00
17855;BME280;9053;53.358;6.382;2022-10-18T06:07:08;102504.44;;;12.97;100.00
17855;BME280;9053;53.358;6.382;2022-10-18T06:09:37;102498.84;;;12.91;100.00
17855;BME280;9053;53.358;6.382;2022-10-18T06:12:08;102510.16;;;12.88;100.00
17855;BME280;9053;53.358;6.382;2022-10-18T06:14:38;102509.19;;;12.86;100.00
17855;BME280;9053;53.358;6.382;2022-10-18T06:17:08;102534.69;;;12.86;100.00
17855;BME280;9053;53.358;6.382;2022-10-18T06:19:40;102539.88;;;12.84;100.00
17855;BME280;9053;53.358;6.382;2022-10-18T06:22:11;102548.50;;;12.80;100.00
17855;BME280;9053;53.358;6.382;2022-10-18T06:24:41;102545.59;;;12.75;100.00
17855;BME280;9053;53.358;6.382;2022-10-18T06:27:11;102543.38;;;12.67;100.00
17855;BME280;9053;53.358;6.382;2022-10-18T06:29:40;102539.44;;;12.59;100.00
17855;BME280;9053;53.358;6.382;2022-10-18T06:32:10;102540.91;;;12.53;100.00
17855;BME280;9053;53.358;6.382;2022-10-18T06:34:43;102544.22;;;12.49;100.00
17855;BME280;9053;53.358;6.382;2022-10-18T06:37:12;102554.75;;;12.49;100.00
17855;BME280;9053;53.358;6.382;2022-10-18T06:39:42;102554.72;;;12.48;100.00
17855;BME280;9053;53.358;6.382;2022-10-18T06:42:12;102556.50;;;12.49;100.00
17855;BME280;9053;53.358;6.382;2022-10-18T06:44:47;102567.00;;;12.47;100.00
17855;BME280;9053;53.358;6.382;2022-10-18T06:47:17;102574.06;;;12.48;100.00
17855;BME280;9053;53.358;6.382;2022-10-18T06:49:49;102574.97;;;12.49;100.00
17855;BME280;9053;53.358;6.382;2022-10-18T06:52:19;102588.28;;;12.50;100.00
17855;BME280;9053;53.358;6.382;2022-10-18T06:54:51;102585.63;;;12.50;100.00
17855;BME280;9053;53.358;6.382;2022-10-18T06:57:21;102577.72;;;12.50;100.00
17855;BME280;9053;53.358;6.382;2022-10-18T06:59:51;102576.81;;;12.50;100.00
17855;BME280;9053;53.358;6.382;2022-10-18T07:02:20;102582.09;;;12.50;100.00
17855;BME280;9053;53.358;6.382;2022-10-18T07:04:53;102579.44;;;12.50;100.00
17855;BME280;9053;53.358;6.382;2022-10-18T07:07:23;102566.16;;;12.48;100.00
17855;BME280;9053;53.358;6.382;2022-10-18T07:09:52;102580.09;;;12.46;100.00
17855;BME280;9053;53.358;6.382;2022-10-18T07:12:22;102586.28;;;12.46;100.00
17855;BME280;9053;53.358;6.382;2022-10-18T07:14:52;102593.28;;;12.46;100.00
17855;BME280;9053;53.358;6.382;2022-10-18T07:17:23;102581.91;;;12.47;100.00
17855;BME280;9053;53.358;6.382;2022-10-18T07:19:55;102575.72;;;12.46;100.00
17855;BME280;9053;53.358;6.382;2022-10-18T07:22:25;102588.03;;;12.46;100.00
17855;BME280;9053;53.358;6.382;2022-10-18T07:24:56;102588.09;;;12.47;100.00
17855;BME280;9053;53.358;6.382;2022-10-18T07:27:26;102605.66;;;12.47;100.00
17855;BME280;9053;53.358;6.382;2022-10-18T07:29:56;102617.13;;;12.47;100.00
17855;BME280;9053;53.358;6.382;2022-10-18T07:32:26;102615.31;;;12.46;100.00
17855;BME280;9053;53.358;6.382;2022-10-18T07:34:58;102604.84;;;12.48;100.00
17855;BME280;9053;53.358;6.382;2022-10-18T07:37:28;102612.75;;;12.48;100.00
17855;BME280;9053;53.358;6.382;2022-10-18T07:39:59;102618.94;;;12.48;100.00
17855;BME280;9053;53.358;6.382;2022-10-18T07:42:29;102618.09;;;12.49;100.00
17855;BME280;9053;53.358;6.382;2022-10-18T07:44:58;102620.75;;;12.49;100.00
17855;BME280;9053;53.358;6.382;2022-10-18T07:47:28;102627.75;;;12.49;100.00
17855;BME280;9053;53.358;6.382;2022-10-18T07:50:04;102623.47;;;12.51;100.00
17855;BME280;9053;53.358;6.382;2022-10-18T07:52:34;102626.13;;;12.51;100.00
17855;BME280;9053;53.358;6.382;2022-10-18T07:55:04;102648.28;;;12.54;100.00
17855;BME280;9053;53.358;6.382;2022-10-18T07:57:34;102642.28;;;12.57;100.00
17855;BME280;9053;53.358;6.382;2022-10-18T08:00:05;102645.91;;;12.59;100.00
17855;BME280;9053;53.358;6.382;2022-10-18T08:02:35;102646.81;;;12.60;100.00
17855;BME280;9053;53.358;6.382;2022-10-18T08:05:08;102645.25;;;12.63;100.00
17855;BME280;9053;53.358;6.382;2022-10-18T08:07:38;102644.69;;;12.69;100.00
17855;BME280;9053;53.358;6.382;2022-10-18T08:10:08;102644.09;;;12.74;100.00
17855;BME280;9053;53.358;6.382;2022-10-18T08:12:38;102625.88;;;12.79;100.00
17855;BME280;9053;53.358;6.382;2022-10-18T08:15:08;102627.00;;;12.84;100.00
17855;BME280;9053;53.358;6.382;2022-10-18T08:17:39;102646.75;;;12.91;100.00
17855;BME280;9053;53.358;6.382;2022-10-18T08:20:24;102637.38;;;12.97;100.00
17855;BME280;9053;53.358;6.382;2022-10-18T08:22:57;102650.94;;;13.04;100.00
17855;BME280;9053;53.358;6.382;2022-10-18T08:25:29;102656.72;;;13.13;100.00
17855;BME280;9053;53.358;6.382;2022-10-18T08:27:59;102661.25;;;13.15;100.00
17855;BME280;9053;53.358;6.382;2022-10-18T08:30:28;102663.28;;;13.21;100.00
17855;BME280;9053;53.358;6.382;2022-10-18T08:32:58;102668.00;;;13.27;100.00
17855;BME280;9053;53.358;6.382;2022-10-18T08:35:31;102661.97;;;13.29;100.00
17855;BME280;9053;53.358;6.382;2022-10-18T08:38:02;102663.13;;;13.34;100.00
17855;BME280;9053;53.358;6.382;2022-10-18T08:40:52;102670.31;;;13.37;100.00
17855;BME280;9053;53.358;6.382;2022-10-18T08:43:27;102662.63;;;13.41;100.00
17855;BME280;9053;53.358;6.382;2022-10-18T08:46:01;102668.94;;;13.45;100.00
17855;BME280;9053;53.358;6.382;2022-10-18T08:48:34;102667.44;;;13.50;100.00
17855;BME280;9053;53.358;6.382;2022-10-18T08:51:15;102657.13;;;13.55;100.00
17855;BME280;9053;53.358;6.382;2022-10-18T08:53:55;102663.53;;;13.60;100.00
17855;BME280;9053;53.358;6.382;2022-10-18T08:56:28;102657.59;;;13.64;100.00
17855;BME280;9053;53.358;6.382;2022-10-18T08:59:00;102658.78;;;13.71;100.00
17855;BME280;9053;53.358;6.382;2022-10-18T09:01:38;102659.84;;;13.74;100.00
17855;BME280;9053;53.358;6.382;2022-10-18T09:04:24;102669.84;;;13.80;100.00
17855;BME280;9053;53.358;6.382;2022-10-18T09:07:23;102666.56;;;13.85;100.00
17855;BME280;9053;53.358;6.382;2022-10-18T09:10:02;102664.09;;;13.89;100.00
17855;BME280;9053;53.358;6.382;2022-10-18T09:12:53;102674.06;;;13.94;100.00
17855;BME280;9053;53.358;6.382;2022-10-18T09:15:33;102678.66;;;13.98;100.00
17855;BME280;9053;53.358;6.382;2022-10-18T09:21:18;102672.94;;;14.07;100.00
17855;BME280;9053;53.358;6.382;2022-10-18T09:23:55;102673.22;;;14.13;100.00
17855;BME280;9053;53.358;6.382;2022-10-18T09:26:32;102675.28;;;14.19;100.00
17855;BME280;9053;53.358;6.382;2022-10-18T09:29:09;102672.00;;;14.24;100.00
17855;BME280;9053;53.358;6.382;2022-10-18T09:31:47;102673.94;;;14.28;100.00
17855;BME280;9053;53.358;6.382;2022-10-18T09:34:25;102676.91;;;14.35;100.00
17855;BME280;9053;53.358;6.382;2022-10-18T09:36:58;102677.94;;;14.38;100.00
17855;BME280;9053;53.358;6.382;2022-10-18T09:39:33;102687.94;;;14.44;100.00
17855;BME280;9053;53.358;6.382;2022-10-18T09:42:10;102691.63;;;14.47;100.00
17855;BME280;9053;53.358;6.382;2022-10-18T09:44:45;102697.16;;;14.52;100.00
17855;BME280;9053;53.358;6.382;2022-10-18T09:47:20;102695.53;;;14.54;100.00
17855;BME280;9053;53.358;6.382;2022-10-18T09:49:55;102697.41;;;14.57;100.00
17855;BME280;9053;53.358;6.382;2022-10-18T09:52:31;102697.53;;;14.60;100.00
17855;BME280;9053;53.358;6.382;2022-10-18T09:55:12;102703.97;;;14.65;100.00
17855;BME280;9053;53.358;6.382;2022-10-18T09:57:46;102705.97;;;14.70;100.00
17855;BME280;9053;53.358;6.382;2022-10-18T10:00:23;102699.09;;;14.74;100.00
17855;BME280;9053;53.358;6.382;2022-10-18T10:02:53;102718.59;;;14.76;100.00
17855;BME280;9053;53.358;6.382;2022-10-18T10:05:23;102727.59;;;14.80;100.00
17855;BME280;9053;53.358;6.382;2022-10-18T10:07:57;102726.00;;;14.83;100.00
17855;BME280;9053;53.358;6.382;2022-10-18T10:10:31;102719.13;;;14.87;100.00
17855;BME280;9053;53.358;6.382;2022-10-18T10:13:03;102729.97;;;14.93;100.00
17855;BME280;9053;53.358;6.382;2022-10-18T10:15:34;102724.13;;;15.00;100.00
17855;BME280;9053;53.358;6.382;2022-10-18T10:18:18;102728.03;;;15.08;100.00
17855;BME280;9053;53.358;6.382;2022-10-18T10:20:51;102735.41;;;15.15;100.00
17855;BME280;9053;53.358;6.382;2022-10-18T10:23:24;102745.47;;;15.23;100.00
17855;BME280;9053;53.358;6.382;2022-10-18T10:25:59;102734.16;;;15.27;100.00
17855;BME280;9053;53.358;6.382;2022-10-18T10:28:33;102737.91;;;15.32;100.00
17855;BME280;9053;53.358;6.382;2022-10-18T10:31:17;102740.63;;;15.33;100.00
17855;BME280;9053;53.358;6.382;2022-10-18T10:33:57;102737.13;;;15.34;100.00
17855;BME280;9053;53.358;6.382;2022-10-18T10:36:28;102738.97;;;15.35;100.00
17855;BME280;9053;53.358;6.382;2022-10-18T10:39:04;102744.53;;;15.42;100.00
17855;BME280;9053;53.358;6.382;2022-10-18T10:41:39;102739.44;;;15.46;100.00
17855;BME280;9053;53.358;6.382;2022-10-18T10:44:14;102740.53;;;15.51;100.00
17855;BME280;9053;53.358;6.382;2022-10-18T10:46:45;102746.94;;;15.56;100.00
17855;BME280;9053;53.358;6.382;2022-10-18T10:49:18;102749.88;;;15.63;100.00
17855;BME280;9053;53.358;6.382;2022-10-18T10:52:16;102748.34;;;15.68;100.00
17855;BME280;9053;53.358;6.382;2022-10-18T10:54:55;102751.88;;;15.68;100.00
17855;BME280;9053;53.358;6.382;2022-10-18T10:57:51;102743.84;;;15.67;100.00
17855;BME280;9053;53.358;6.382;2022-10-18T11:00:40;102753.47;;;15.65;100.00
17855;BME280;9053;53.358;6.382;2022-10-18T11:03:13;102739.97;;;15.58;100.00
17855;BME280;9053;53.358;6.382;2022-10-18T11:05:59;102750.44;;;15.55;100.00
17855;BME280;9053;53.358;6.382;2022-10-18T11:08:34;102749.59;;;15.56;100.00
17855;BME280;9053;53.358;6.382;2022-10-18T11:11:14;102754.84;;;15.55;100.00
17855;BME280;9053;53.358;6.382;2022-10-18T11:13:56;102756.75;;;15.57;100.00
17855;BME280;9053;53.358;6.382;2022-10-18T11:16:55;102755.81;;;15.57;100.00
17855;BME280;9053;53.358;6.382;2022-10-18T11:19:37;102760.22;;;15.56;100.00
17855;BME280;9053;53.358;6.382;2022-10-18T11:22:14;102753.31;;;15.60;100.00
17855;BME280;9053;53.358;6.382;2022-10-18T11:24:45;102755.19;;;15.63;100.00
17855;BME280;9053;53.358;6.382;2022-10-18T11:27:19;102753.34;;;15.62;100.00
17855;BME280;9053;53.358;6.382;2022-10-18T11:30:14;102759.56;;;15.62;100.00
17855;BME280;9053;53.358;6.382;2022-10-18T11:32:52;102746.25;;;15.61;100.00
17855;BME280;9053;53.358;6.382;2022-10-18T11:35:34;102756.13;;;15.65;100.00
17855;BME280;9053;53.358;6.382;2022-10-18T11:38:26;102759.94;;;15.70;100.00
17855;BME280;9053;53.358;6.382;2022-10-18T11:41:17;102766.28;;;15.73;100.00
17855;BME280;9053;53.358;6.382;2022-10-18T11:43:53;102758.53;;;15.78;100.00
17855;BME280;9053;53.358;6.382;2022-10-18T11:46:44;102760.63;;;15.85;100.00
17855;BME280;9053;53.358;6.382;2022-10-18T11:49:30;102755.63;;;15.93;100.00
17855;BME280;9053;53.358;6.382;2022-10-18T11:52:07;102758.59;;;16.00;100.00
17855;BME280;9053;53.358;6.382;2022-10-18T11:54:49;102764.16;;;16.07;100.00
17855;BME280;9053;53.358;6.382;2022-10-18T11:57:38;102752.88;;;16.12;100.00
17855;BME280;9053;53.358;6.382;2022-10-18T12:00:21;102747.78;;;16.17;100.00
17855;BME280;9053;53.358;6.382;2022-10-18T12:03:17;102738.34;;;16.25;100.00
17855;BME280;9053;53.358;6.382;2022-10-18T12:05:50;102748.16;;;16.26;100.00
17855;BME280;9053;53.358;6.382;2022-10-18T12:08:25;102764.09;;;16.26;100.00
17855;BME280;9053;53.358;6.382;2022-10-18T12:11:00;102761.47;;;16.28;100.00
17855;BME280;9053;53.358;6.382;2022-10-18T12:13:37;102759.75;;;16.28;100.00
17855;BME280;9053;53.358;6.382;2022-10-18T12:16:08;102757.81;;;16.24;100.00
17855;BME280;9053;53.358;6.382;2022-10-18T12:18:48;102758.69;;;16.25;100.00
17855;BME280;9053;53.358;6.382;2022-10-18T12:21:22;102759.59;;;16.25;100.00
17855;BME280;9053;53.358;6.382;2022-10-18T12:23:56;102765.06;;;16.28;100.00
17855;BME280;9053;53.358;6.382;2022-10-18T12:26:27;102762.56;;;16.33;100.00
17855;BME280;9053;53.358;6.382;2022-10-18T12:29:05;102756.47;;;16.35;100.00
17855;BME280;9053;53.358;6.382;2022-10-18T12:31:42;102754.75;;;16.36;100.00
17855;BME280;9053;53.358;6.382;2022-10-18T12:34:35;102753.00;;;16.36;100.00
17855;BME280;9053;53.358;6.382;2022-10-18T12:37:40;102755.66;;;16.36;100.00
17855;BME280;9053;53.358;6.382;2022-10-18T12:40:20;102746.59;;;16.31;100.00
17855;BME280;9053;53.358;6.382;2022-10-18T12:42:52;102743.81;;;16.28;100.00
17855;BME280;9053;53.358;6.382;2022-10-18T12:45:28;102749.13;;;16.28;100.00
17855;BME280;9053;53.358;6.382;2022-10-18T12:48:03;102740.06;;;16.23;100.00
17855;BME280;9053;53.358;6.382;2022-10-18T12:50:39;102732.03;;;16.21;100.00
17855;BME280;9053;53.358;6.382;2022-10-18T12:53:16;102745.97;;;16.16;100.00
17855;BME280;9053;53.358;6.382;2022-10-18T12:55:50;102759.25;;;16.16;100.00
17855;BME280;9053;53.358;6.382;2022-10-18T12:58:28;102750.44;;;16.17;100.00
17855;BME280;9053;53.358;6.382;2022-10-18T13:01:03;102757.56;;;16.18;100.00
17855;BME280;9053;53.358;6.382;2022-10-18T13:03:49;102746.88;;;16.16;100.00
17855;BME280;9053;53.358;6.382;2022-10-18T13:06:22;102746.88;;;16.16;100.00
17855;BME280;9053;53.358;6.382;2022-10-18T13:09:16;102752.25;;;16.18;100.00
17855;BME280;9053;53.358;6.382;2022-10-18T13:11:46;102753.19;;;16.20;100.00
17855;BME280;9053;53.358;6.382;2022-10-18T13:17:40;102758.59;;;16.21;100.00
17855;BME280;9053;53.358;6.382;2022-10-18T13:20:22;102764.66;;;16.19;100.00
17855;BME280;9053;53.358;6.382;2022-10-18T13:23:21;102762.88;;;16.18;100.00
17855;BME280;9053;53.358;6.382;2022-10-18T13:26:03;102756.50;;;16.14;100.00
17855;BME280;9053;53.358;6.382;2022-10-18T13:28:46;102756.38;;;16.11;100.00
17855;BME280;9053;53.358;6.382;2022-10-18T13:31:22;102754.50;;;16.09;100.00
17855;BME280;9053;53.358;6.382;2022-10-18T13:34:22;102750.19;;;16.11;100.00
17855;BME280;9053;53.358;6.382;2022-10-18T13:36:58;102746.63;;;16.10;100.00